Time;durP1;ratioP1;P1;durP2;ratioP2;P2;SDS_P1;SDS_P2;PMS_P1;PMS_P2;Temp;Humidity;BMP_temperature;BMP_pressure;BME280_temperature;BME280_humidity;BME280_pressure;Samples;Min_cycle;Max_cycle;Signal;HPM_P1;HPM_P2
2022/01/04 00:00:07;;;;;;;27.27;13.50;;;;;;;;;;5045126;28;20290;-67
2022/01/04 00:02:32;;;;;;;23.87;14.30;;;;;;;;;;5035734;28;20576;-67
2022/01/04 00:04:58;;;;;;;26.23;14.73;;;;;;;;;;5044742;28;20189;-68
2022/01/04 00:07:23;;;;;;;28.50;14.83;;;;;;;;;;5048004;28;20219;-68
2022/01/04 00:09:51;;;;;;;28.80;15.23;;;;;;;;;;5041446;28;20186;-68
2022/01/04 00:15:01;;;;;;;29.30;15.13;;;;;;;;;;5037391;28;20200;-68
2022/01/04 00:17:28;;;;;;;31.23;15.97;;;;;;;;;;5045180;28;20201;-68
2022/01/04 00:19:53;;;;;;;33.60;16.00;;;;;;;;;;5043618;28;20193;-68
2022/01/04 00:22:19;;;;;;;23.13;14.73;;;;;;;;;;5048049;28;20185;-67
2022/01/04 00:24:44;;;;;;;28.33;15.90;;;;;;;;;;5037911;28;20193;-68
2022/01/04 00:27:09;;;;;;;27.57;15.63;;;;;;;;;;5048110;28;20185;-68
2022/01/04 00:29:35;;;;;;;34.60;16.73;;;;;;;;;;5045696;28;20745;-68
2022/01/04 00:32:00;;;;;;;25.83;15.30;;;;;;;;;;5048657;28;20228;-67
2022/01/04 00:34:25;;;;;;;31.90;15.30;;;;;;;;;;5044414;28;20190;-67
2022/01/04 00:36:51;;;;;;;30.00;15.07;;;;;;;;;;5048059;28;20212;-67
2022/01/04 00:39:16;;;;;;;23.77;14.53;;;;;;;;;;5043561;28;20197;-67
2022/01/04 00:41:41;;;;;;;27.07;13.93;;;;;;;;;;5042053;28;20273;-68
2022/01/04 00:44:07;;;;;;;26.07;14.80;;;;;;;;;;5045016;28;20644;-68
2022/01/04 00:46:32;;;;;;;27.97;15.30;;;;;;;;;;5042862;28;20648;-68
2022/01/04 00:49:10;;;;;;;24.93;14.63;;;;;;;;;;5043806;28;20200;-67
2022/01/04 00:51:42;;;;;;;25.07;14.80;;;;;;;;;;5043769;28;20533;-68
2022/01/04 00:54:08;;;;;;;24.93;15.50;;;;;;;;;;5040355;28;20185;-68
2022/01/04 00:56:34;;;;;;;25.50;14.57;;;;;;;;;;5040944;28;20232;-69
2022/01/04 00:59:00;;;;;;;26.57;14.93;;;;;;;;;;5039480;28;20181;-68
2022/01/04 01:01:26;;;;;;;26.50;15.20;;;;;;;;;;5036653;28;20200;-68
2022/01/04 01:03:51;;;;;;;29.33;15.23;;;;;;;;;;5039532;28;20271;-68
2022/01/04 01:06:18;;;;;;;34.37;15.47;;;;;;;;;;5037814;28;20189;-68
2022/01/04 01:08:43;;;;;;;26.03;15.67;;;;;;;;;;5040327;28;20275;-68
2022/01/04 01:11:10;;;;;;;29.23;15.40;;;;;;;;;;5038109;28;20269;-68
2022/01/04 01:13:35;;;;;;;28.55;15.52;;;;;;;;;;5040484;28;20185;-68
2022/01/04 01:16:01;;;;;;;29.77;15.77;;;;;;;;;;5042825;28;20535;-68
2022/01/04 01:18:26;;;;;;;31.00;15.70;;;;;;;;;;5043032;28;20408;-69
2022/01/04 01:20:52;;;;;;;27.27;16.60;;;;;;;;;;5046479;28;20666;-68
2022/01/04 01:23:18;;;;;;;34.87;15.83;;;;;;;;;;5043049;28;20618;-68
2022/01/04 01:25:44;;;;;;;23.40;15.02;;;;;;;;;;5036615;28;20232;-68
2022/01/04 01:28:09;;;;;;;28.43;16.00;;;;;;;;;;5040097;28;20209;-68
2022/01/04 01:30:38;;;;;;;30.13;16.57;;;;;;;;;;5044149;28;20254;-67
2022/01/04 01:33:03;;;;;;;32.93;16.07;;;;;;;;;;5042604;28;20189;-68
2022/01/04 01:35:30;;;;;;;25.67;15.97;;;;;;;;;;5046106;28;20216;-69
2022/01/04 01:37:57;;;;;;;32.55;16.65;;;;;;;;;;5044373;28;20204;-68
2022/01/04 01:40:22;;;;;;;31.10;16.50;;;;;;;;;;5040990;28;20185;-68
2022/01/04 01:42:48;;;;;;;30.23;16.87;;;;;;;;;;5041876;28;20706;-67
2022/01/04 01:45:16;;;;;;;33.03;16.60;;;;;;;;;;5047571;28;20193;-68
2022/01/04 01:47:42;;;;;;;34.75;16.92;;;;;;;;;;5042762;28;20177;-72
2022/01/04 01:50:11;;;;;;;32.47;17.17;;;;;;;;;;5046650;28;20221;-72
2022/01/04 01:52:36;;;;;;;33.30;17.80;;;;;;;;;;5034443;28;20184;-74
2022/01/04 01:55:02;;;;;;;29.98;17.23;;;;;;;;;;5040084;28;20198;-72
2022/01/04 01:57:28;;;;;;;33.30;17.20;;;;;;;;;;5043024;28;20307;-74
2022/01/04 01:59:53;;;;;;;27.60;18.23;;;;;;;;;;5037757;28;20268;-73
2022/01/04 02:02:19;;;;;;;34.20;18.42;;;;;;;;;;5037913;28;20217;-72
2022/01/04 02:04:44;;;;;;;31.55;17.65;;;;;;;;;;5045934;28;20287;-72
2022/01/04 02:07:11;;;;;;;27.23;16.33;;;;;;;;;;5048059;28;20196;-71
2022/01/04 02:09:40;;;;;;;33.47;17.55;;;;;;;;;;5039969;28;20235;-71
2022/01/04 02:12:07;;;;;;;28.95;16.35;;;;;;;;;;5039075;28;20196;-71
2022/01/04 02:14:33;;;;;;;39.22;17.88;;;;;;;;;;5039613;28;20178;-70
2022/01/04 02:16:58;;;;;;;33.90;19.88;;;;;;;;;;5046127;28;20216;-71
2022/01/04 02:19:24;;;;;;;34.03;18.25;;;;;;;;;;5038490;28;20638;-71
2022/01/04 02:21:50;;;;;;;30.65;19.02;;;;;;;;;;5042014;28;20220;-70
2022/01/04 02:24:15;;;;;;;36.10;19.63;;;;;;;;;;5037547;28;20174;-70
2022/01/04 02:26:41;;;;;;;35.50;20.08;;;;;;;;;;5047288;28;20623;-70
2022/01/04 02:29:07;;;;;;;35.80;20.83;;;;;;;;;;5039146;28;20221;-70
2022/01/04 02:31:33;;;;;;;35.85;20.35;;;;;;;;;;5042634;28;20205;-70
2022/01/04 02:33:59;;;;;;;31.25;19.50;;;;;;;;;;5038757;28;20194;-69
2022/01/04 02:36:24;;;;;;;30.38;19.23;;;;;;;;;;5042918;28;20206;-69
2022/01/04 02:38:53;;;;;;;31.83;19.67;;;;;;;;;;5037134;28;20660;-69
2022/01/04 02:41:19;;;;;;;32.17;18.70;;;;;;;;;;5043602;28;20276;-69
2022/01/04 02:43:44;;;;;;;36.80;19.38;;;;;;;;;;5039953;28;20261;-69
2022/01/04 02:46:10;;;;;;;28.83;18.92;;;;;;;;;;5038577;28;21244;-69
2022/01/04 02:48:43;;;;;;;32.58;19.02;;;;;;;;;;5042795;28;20659;-69
2022/01/04 02:51:09;;;;;;;33.00;18.50;;;;;;;;;;5042510;28;20220;-68
2022/01/04 02:53:34;;;;;;;31.98;18.88;;;;;;;;;;5042220;28;20588;-68
2022/01/04 02:55:59;;;;;;;34.75;19.67;;;;;;;;;;5042990;28;20315;-68
2022/01/04 02:58:25;;;;;;;27.73;17.85;;;;;;;;;;5049076;28;20202;-70
2022/01/04 03:00:50;;;;;;;27.02;17.25;;;;;;;;;;5043358;28;20185;-69
2022/01/04 03:03:15;;;;;;;26.42;16.17;;;;;;;;;;5042656;28;20181;-69
2022/01/04 03:05:41;;;;;;;36.33;18.63;;;;;;;;;;5045745;28;20188;-69
2022/01/04 03:08:06;;;;;;;29.33;18.35;;;;;;;;;;5047425;28;20174;-69
2022/01/04 03:10:32;;;;;;;29.27;18.00;;;;;;;;;;5047880;28;20182;-70
2022/01/04 03:12:57;;;;;;;28.80;17.25;;;;;;;;;;5044760;28;20215;-69
2022/01/04 03:15:22;;;;;;;34.58;18.13;;;;;;;;;;5047521;28;20196;-69
2022/01/04 03:17:48;;;;;;;27.50;17.25;;;;;;;;;;5039277;28;20213;-69
2022/01/04 03:20:13;;;;;;;29.70;16.58;;;;;;;;;;5042308;28;20186;-69
2022/01/04 03:22:39;;;;;;;32.90;17.95;;;;;;;;;;5047166;28;20193;-68
2022/01/04 03:25:06;;;;;;;33.70;16.70;;;;;;;;;;5044976;28;20185;-69
2022/01/04 03:27:31;;;;;;;28.60;16.77;;;;;;;;;;5047545;28;20183;-68
2022/01/04 03:29:57;;;;;;;24.88;16.85;;;;;;;;;;5040694;28;20621;-68
2022/01/04 03:32:22;;;;;;;28.35;16.45;;;;;;;;;;5048481;28;20188;-68
2022/01/04 03:34:47;;;;;;;28.38;17.25;;;;;;;;;;5046172;28;20189;-68
2022/01/04 03:37:13;;;;;;;27.90;16.67;;;;;;;;;;5046609;28;20233;-68
2022/01/04 03:39:39;;;;;;;29.50;17.07;;;;;;;;;;5045006;28;20200;-68
2022/01/04 03:42:05;;;;;;;25.75;16.90;;;;;;;;;;5048174;28;20186;-68
2022/01/04 03:44:30;;;;;;;30.20;16.48;;;;;;;;;;5041244;28;20189;-68
2022/01/04 03:46:56;;;;;;;32.83;17.33;;;;;;;;;;5048804;28;20288;-68
2022/01/04 03:49:21;;;;;;;26.58;16.80;;;;;;;;;;5043245;28;20189;-68
2022/01/04 03:51:47;;;;;;;25.57;16.53;;;;;;;;;;5049347;28;20272;-68
2022/01/04 03:54:13;;;;;;;33.80;16.92;;;;;;;;;;5040088;28;20182;-68
2022/01/04 03:56:38;;;;;;;26.92;16.30;;;;;;;;;;5045424;28;20221;-68
2022/01/04 03:59:04;;;;;;;29.17;16.42;;;;;;;;;;5043979;28;20231;-69
2022/01/04 04:01:29;;;;;;;26.27;16.48;;;;;;;;;;5047512;28;20193;-68
2022/01/04 04:03:55;;;;;;;24.67;15.17;;;;;;;;;;5038555;28;20177;-68
2022/01/04 04:06:20;;;;;;;30.95;15.50;;;;;;;;;;5041317;28;20671;-68
2022/01/04 04:08:46;;;;;;;25.80;15.88;;;;;;;;;;5043376;28;20181;-68
2022/01/04 04:11:11;;;;;;;26.30;15.38;;;;;;;;;;5048192;28;20181;-68
2022/01/04 04:13:37;;;;;;;25.60;15.77;;;;;;;;;;5045467;28;20190;-69
2022/01/04 04:16:02;;;;;;;27.33;16.38;;;;;;;;;;5046580;28;20200;-69
2022/01/04 04:18:28;;;;;;;26.98;16.42;;;;;;;;;;5047022;28;20211;-68
2022/01/04 04:20:53;;;;;;;27.58;15.15;;;;;;;;;;5044443;28;20193;-68
2022/01/04 04:23:18;;;;;;;30.55;15.68;;;;;;;;;;5044338;28;20190;-68
2022/01/04 04:25:44;;;;;;;28.15;15.93;;;;;;;;;;5045854;28;20185;-68
2022/01/04 04:28:09;;;;;;;30.42;15.25;;;;;;;;;;5044843;28;20182;-68
2022/01/04 04:30:35;;;;;;;29.35;15.80;;;;;;;;;;5036147;28;20198;-68
2022/01/04 04:33:01;;;;;;;30.38;16.77;;;;;;;;;;5047903;28;20182;-68
2022/01/04 04:35:27;;;;;;;29.77;16.00;;;;;;;;;;5044430;28;20224;-68
2022/01/04 04:37:52;;;;;;;26.05;15.60;;;;;;;;;;5048162;28;20261;-69
2022/01/04 04:40:17;;;;;;;29.90;16.63;;;;;;;;;;5041072;28;20178;-68
2022/01/04 04:42:43;;;;;;;27.20;16.17;;;;;;;;;;5045208;28;20652;-67
2022/01/04 04:45:08;;;;;;;32.15;16.35;;;;;;;;;;5043522;28;20235;-69
2022/01/04 04:47:34;;;;;;;26.92;16.40;;;;;;;;;;5047585;28;20564;-69
2022/01/04 04:50:00;;;;;;;36.17;17.48;;;;;;;;;;5036485;28;20184;-68
2022/01/04 04:52:26;;;;;;;30.73;16.08;;;;;;;;;;5045447;28;20215;-69
2022/01/04 04:54:51;;;;;;;28.93;16.77;;;;;;;;;;5037267;28;20186;-69
2022/01/04 04:57:16;;;;;;;28.97;17.07;;;;;;;;;;5042847;28;20233;-68
2022/01/04 04:59:42;;;;;;;27.27;15.35;;;;;;;;;;5037810;28;20609;-68
2022/01/04 05:02:08;;;;;;;31.60;17.33;;;;;;;;;;5044283;28;20251;-69
2022/01/04 05:04:34;;;;;;;31.80;16.90;;;;;;;;;;5046029;28;20192;-69
2022/01/04 05:07:00;;;;;;;29.03;17.37;;;;;;;;;;5045371;28;20181;-69
2022/01/04 05:09:25;;;;;;;30.33;17.90;;;;;;;;;;5044805;28;20609;-68
2022/01/04 05:11:51;;;;;;;31.83;18.50;;;;;;;;;;5036959;28;20202;-68
2022/01/04 05:14:16;;;;;;;33.28;17.40;;;;;;;;;;5047404;28;20503;-69
2022/01/04 05:16:41;;;;;;;31.60;17.23;;;;;;;;;;5043127;28;20291;-69
2022/01/04 05:19:07;;;;;;;32.30;18.52;;;;;;;;;;5046402;28;20185;-69
2022/01/04 05:21:32;;;;;;;33.67;17.23;;;;;;;;;;5042310;28;20181;-69
2022/01/04 05:23:57;;;;;;;31.83;17.73;;;;;;;;;;5040412;28;20284;-68
2022/01/04 05:26:23;;;;;;;33.97;17.85;;;;;;;;;;5036145;28;20319;-68
2022/01/04 05:28:48;;;;;;;31.47;18.27;;;;;;;;;;5043695;28;20189;-68
2022/01/04 05:31:14;;;;;;;31.20;18.65;;;;;;;;;;5044080;28;20220;-68
2022/01/04 05:33:40;;;;;;;32.78;17.40;;;;;;;;;;5045786;28;20192;-68
2022/01/04 05:36:05;;;;;;;35.78;18.88;;;;;;;;;;5040781;28;20204;-68
2022/01/04 05:38:31;;;;;;;37.50;18.07;;;;;;;;;;5046073;28;20656;-68
2022/01/04 05:40:57;;;;;;;31.13;18.67;;;;;;;;;;5043237;28;20256;-68
2022/01/04 05:43:22;;;;;;;28.47;17.90;;;;;;;;;;5042271;28;20181;-68
2022/01/04 05:45:47;;;;;;;30.48;18.52;;;;;;;;;;5043741;28;20192;-68
2022/01/04 05:48:13;;;;;;;32.65;18.35;;;;;;;;;;5042454;28;20189;-68
2022/01/04 05:50:39;;;;;;;35.13;19.83;;;;;;;;;;5038332;28;20177;-68
2022/01/04 05:53:05;;;;;;;32.30;18.83;;;;;;;;;;5038525;28;20285;-68
2022/01/04 05:55:30;;;;;;;31.20;17.40;;;;;;;;;;5043470;28;20194;-68
2022/01/04 05:57:56;;;;;;;27.52;16.75;;;;;;;;;;5044933;28;20698;-69
2022/01/04 06:00:21;;;;;;;33.20;19.25;;;;;;;;;;5039109;28;20181;-68
2022/01/04 06:02:46;;;;;;;30.43;18.17;;;;;;;;;;5044105;28;20196;-69
2022/01/04 06:05:12;;;;;;;33.67;19.20;;;;;;;;;;5042715;28;20199;-69
2022/01/04 06:07:37;;;;;;;30.40;17.47;;;;;;;;;;5037883;28;20185;-68
2022/01/04 06:10:06;;;;;;;31.77;18.10;;;;;;;;;;5044426;28;20291;-69
2022/01/04 06:15:02;;;;;;;33.23;18.77;;;;;;;;;;5046226;28;20183;-68
2022/01/04 06:17:35;;;;;;;33.67;17.30;;;;;;;;;;5036105;28;20201;-68
2022/01/04 06:20:04;;;;;;;29.93;18.63;;;;;;;;;;5044987;28;20220;-68
2022/01/04 06:22:30;;;;;;;35.23;18.67;;;;;;;;;;5040344;28;20532;-68
2022/01/04 06:24:55;;;;;;;37.67;18.73;;;;;;;;;;5045242;28;20191;-68
2022/01/04 06:27:22;;;;;;;30.37;18.00;;;;;;;;;;5039312;28;20541;-69
2022/01/04 06:29:47;;;;;;;31.53;18.57;;;;;;;;;;5046995;28;20665;-68
2022/01/04 06:32:13;;;;;;;32.30;17.50;;;;;;;;;;5045920;28;20193;-68
2022/01/04 06:34:40;;;;;;;32.67;19.10;;;;;;;;;;5050688;28;20684;-68
2022/01/04 06:37:06;;;;;;;31.73;17.63;;;;;;;;;;5043711;28;20359;-68
2022/01/04 06:39:32;;;;;;;30.70;19.00;;;;;;;;;;5045482;28;20258;-68
2022/01/04 06:41:57;;;;;;;34.07;18.43;;;;;;;;;;5048197;28;20283;-69
2022/01/04 06:44:23;;;;;;;33.57;19.37;;;;;;;;;;5048443;28;20174;-69
2022/01/04 06:46:48;;;;;;;35.37;19.37;;;;;;;;;;5048751;28;20604;-68
2022/01/04 06:49:14;;;;;;;31.63;18.23;;;;;;;;;;5047692;28;20750;-68
2022/01/04 06:51:41;;;;;;;33.23;19.00;;;;;;;;;;5044005;28;20323;-68
2022/01/04 06:54:08;;;;;;;35.17;18.17;;;;;;;;;;5045668;28;20177;-68
2022/01/04 06:56:33;;;;;;;36.90;20.00;;;;;;;;;;5045512;28;20233;-68
2022/01/04 06:58:59;;;;;;;35.83;20.10;;;;;;;;;;5044147;28;20188;-69
2022/01/04 07:01:24;;;;;;;32.50;19.00;;;;;;;;;;5046945;28;20203;-68
2022/01/04 07:03:49;;;;;;;37.83;19.90;;;;;;;;;;5040573;28;20186;-69
2022/01/04 07:06:15;;;;;;;33.60;20.43;;;;;;;;;;5046864;28;20521;-68
2022/01/04 07:08:40;;;;;;;35.83;20.37;;;;;;;;;;5040256;28;20181;-68
2022/01/04 07:11:05;;;;;;;36.67;20.50;;;;;;;;;;5045676;28;20306;-68
2022/01/04 07:13:31;;;;;;;35.93;20.33;;;;;;;;;;5045331;28;20504;-67
2022/01/04 07:15:56;;;;;;;36.53;19.90;;;;;;;;;;5047238;28;20273;-69
2022/01/04 07:18:22;;;;;;;35.63;20.50;;;;;;;;;;5046127;28;20279;-68
2022/01/04 07:20:47;;;;;;;37.30;19.67;;;;;;;;;;5049158;28;20553;-69
2022/01/04 07:23:13;;;;;;;35.00;18.37;;;;;;;;;;5039039;28;20181;-68
2022/01/04 07:25:38;;;;;;;46.73;20.13;;;;;;;;;;5041532;28;20221;-68
2022/01/04 07:28:04;;;;;;;33.87;19.63;;;;;;;;;;5043381;28;20239;-67
2022/01/04 07:30:29;;;;;;;34.80;20.30;;;;;;;;;;5044852;28;20221;-68
2022/01/04 07:32:55;;;;;;;35.33;19.80;;;;;;;;;;5046075;28;20181;-69
2022/01/04 07:35:21;;;;;;;29.17;18.50;;;;;;;;;;5041306;28;20240;-68
2022/01/04 07:37:46;;;;;;;37.33;20.30;;;;;;;;;;5042260;28;20469;-68
2022/01/04 07:40:12;;;;;;;39.23;20.10;;;;;;;;;;5047619;28;20251;-68
2022/01/04 07:42:37;;;;;;;36.80;20.17;;;;;;;;;;5048491;28;20189;-68
2022/01/04 07:45:03;;;;;;;36.17;19.60;;;;;;;;;;5045010;28;20208;-68
2022/01/04 07:47:29;;;;;;;40.07;20.80;;;;;;;;;;5048846;28;20181;-68
2022/01/04 07:49:54;;;;;;;39.03;20.27;;;;;;;;;;5044410;28;20478;-69
2022/01/04 07:52:19;;;;;;;36.20;19.83;;;;;;;;;;5045437;28;20564;-68
2022/01/04 07:54:45;;;;;;;40.30;21.23;;;;;;;;;;5044247;28;20178;-68
2022/01/04 07:57:10;;;;;;;37.07;20.90;;;;;;;;;;5047026;28;20253;-68
2022/01/04 07:59:35;;;;;;;39.60;19.88;;;;;;;;;;5036868;28;20182;-68
2022/01/04 08:02:01;;;;;;;39.30;20.27;;;;;;;;;;5040784;28;20245;-68
2022/01/04 08:04:26;;;;;;;36.17;19.33;;;;;;;;;;5044281;28;20185;-68
2022/01/04 08:06:51;;;;;;;33.97;20.75;;;;;;;;;;5040653;28;20699;-68
2022/01/04 08:09:17;;;;;;;38.47;21.07;;;;;;;;;;5041624;28;20219;-68
2022/01/04 08:11:42;;;;;;;35.90;19.33;;;;;;;;;;5040902;28;20456;-69
2022/01/04 08:14:08;;;;;;;39.47;20.07;;;;;;;;;;5046170;28;20194;-69
2022/01/04 08:16:34;;;;;;;36.23;20.60;;;;;;;;;;5045593;28;20576;-69
2022/01/04 08:19:00;;;;;;;38.87;19.83;;;;;;;;;;5045609;28;20193;-69
2022/01/04 08:21:25;;;;;;;42.40;21.00;;;;;;;;;;5043950;28;20193;-69
2022/01/04 08:23:51;;;;;;;36.83;19.25;;;;;;;;;;5047275;28;20185;-69
2022/01/04 08:26:16;;;;;;;31.80;18.63;;;;;;;;;;5042093;28;20488;-69
2022/01/04 08:28:42;;;;;;;37.25;20.17;;;;;;;;;;5049200;28;20265;-69
2022/01/04 08:31:07;;;;;;;34.93;20.00;;;;;;;;;;5042971;28;20216;-69
2022/01/04 08:33:32;;;;;;;32.28;17.75;;;;;;;;;;5044238;28;20192;-68
2022/01/04 08:35:58;;;;;;;32.63;18.53;;;;;;;;;;5042591;28;20181;-68
2022/01/04 08:38:23;;;;;;;36.40;19.42;;;;;;;;;;5042840;28;20208;-68
2022/01/04 08:40:49;;;;;;;36.55;19.15;;;;;;;;;;5044883;28;20220;-68
2022/01/04 08:43:14;;;;;;;35.22;19.10;;;;;;;;;;5042215;28;20585;-68
2022/01/04 08:45:40;;;;;;;38.03;20.30;;;;;;;;;;5045641;28;20173;-68
2022/01/04 08:48:05;;;;;;;36.22;19.67;;;;;;;;;;5040518;28;20188;-68
2022/01/04 08:50:31;;;;;;;35.45;20.27;;;;;;;;;;5041441;28;20193;-69
2022/01/04 08:52:56;;;;;;;33.67;19.60;;;;;;;;;;5035404;28;20197;-68
2022/01/04 08:55:24;;;;;;;33.45;19.17;;;;;;;;;;5035504;28;20636;-68
2022/01/04 08:57:50;;;;;;;37.15;19.77;;;;;;;;;;5035145;28;20205;-68
2022/01/04 09:00:17;;;;;;;32.33;19.65;;;;;;;;;;5035452;28;20665;-68
2022/01/04 09:02:43;;;;;;;42.28;20.20;;;;;;;;;;5033620;28;20189;-68
2022/01/04 09:05:10;;;;;;;37.92;20.42;;;;;;;;;;5033774;28;20692;-68
2022/01/04 09:07:35;;;;;;;35.42;19.00;;;;;;;;;;5035019;28;20280;-68
2022/01/04 09:10:02;;;;;;;36.28;19.17;;;;;;;;;;5035602;28;20772;-68
2022/01/04 09:12:40;;;;;;;36.97;19.90;;;;;;;;;;4336189;28;10000849;-68
2022/01/04 09:15:28;;;;;;;37.38;19.55;;;;;;;;;;5032678;28;20189;-67
2022/01/04 09:20:35;;;;;;;37.42;19.13;;;;;;;;;;5027294;28;20203;-67
2022/01/04 09:23:01;;;;;;;34.83;19.20;;;;;;;;;;5029114;28;20575;-68
2022/01/04 09:25:26;;;;;;;32.20;18.60;;;;;;;;;;5033682;28;20224;-68
2022/01/04 09:27:52;;;;;;;36.50;19.98;;;;;;;;;;5030803;28;20193;-69
2022/01/04 09:30:18;;;;;;;31.95;18.15;;;;;;;;;;5032145;28;20215;-69
2022/01/04 09:32:43;;;;;;;31.80;17.88;;;;;;;;;;5033004;28;20197;-69
2022/01/04 09:35:11;;;;;;;33.67;19.25;;;;;;;;;;5033979;28;20265;-69
2022/01/04 09:37:36;;;;;;;31.60;18.40;;;;;;;;;;5034216;28;20225;-67
2022/01/04 09:40:03;;;;;;;34.15;18.13;;;;;;;;;;5034530;28;20627;-68
2022/01/04 09:42:28;;;;;;;36.38;18.65;;;;;;;;;;5031597;28;20420;-68
2022/01/04 09:44:54;;;;;;;30.40;18.30;;;;;;;;;;5031911;28;20186;-68
2022/01/04 09:47:20;;;;;;;34.28;18.58;;;;;;;;;;5030692;28;20190;-68
2022/01/04 09:49:45;;;;;;;33.38;18.40;;;;;;;;;;5032438;28;20264;-69
2022/01/04 09:52:15;;;;;;;29.88;18.40;;;;;;;;;;5028184;28;21959;-68
2022/01/04 09:54:41;;;;;;;31.45;17.85;;;;;;;;;;5025919;28;20291;-68
2022/01/04 09:57:06;;;;;;;34.70;17.75;;;;;;;;;;5021153;28;20688;-68
2022/01/04 09:59:32;;;;;;;28.48;17.88;;;;;;;;;;5027683;28;20189;-67
2022/01/04 10:02:12;;;;;;;35.15;18.05;;;;;;;;;;5016416;28;20216;-68
2022/01/04 10:04:37;;;;;;;28.38;17.10;;;;;;;;;;5027557;28;20547;-68
2022/01/04 10:07:05;;;;;;;31.67;17.30;;;;;;;;;;5025436;28;20177;-69
2022/01/04 10:09:46;;;;;;;30.30;17.55;;;;;;;;;;5028830;28;20546;-68
2022/01/04 10:12:17;;;;;;;29.27;17.25;;;;;;;;;;5029784;28;20170;-68
2022/01/04 10:14:48;;;;;;;33.20;18.27;;;;;;;;;;5027344;28;20197;-67
2022/01/04 10:17:17;;;;;;;35.60;17.88;;;;;;;;;;5023364;28;20235;-67
2022/01/04 10:19:49;;;;;;;31.10;17.77;;;;;;;;;;5024944;28;20194;-68
2022/01/04 10:22:27;;;;;;;34.38;16.92;;;;;;;;;;5025231;28;20215;-68
2022/01/04 10:25:02;;;;;;;39.83;17.90;;;;;;;;;;5029073;28;20627;-68
2022/01/04 10:27:48;;;;;;;33.42;17.98;;;;;;;;;;5027372;28;20276;-68
2022/01/04 10:30:28;;;;;;;28.60;17.65;;;;;;;;;;5027838;28;20212;-68
2022/01/04 10:32:55;;;;;;;30.60;18.00;;;;;;;;;;5024917;28;20668;-68
2022/01/04 10:35:25;;;;;;;29.13;17.40;;;;;;;;;;5028032;28;20613;-68
2022/01/04 10:37:51;;;;;;;30.75;18.02;;;;;;;;;;5027151;28;20240;-68
2022/01/04 10:40:16;;;;;;;34.45;18.25;;;;;;;;;;5032540;28;20186;-68
2022/01/04 10:42:42;;;;;;;34.42;18.13;;;;;;;;;;5028911;28;20695;-68
2022/01/04 10:45:28;;;;;;;29.88;18.77;;;;;;;;;;5029738;28;20185;-69
2022/01/04 10:47:54;;;;;;;32.45;18.30;;;;;;;;;;5032645;28;20242;-68
2022/01/04 10:50:34;;;;;;;33.35;19.45;;;;;;;;;;5038139;28;20185;-68
2022/01/04 10:53:00;;;;;;;33.08;19.60;;;;;;;;;;5037614;28;20553;-69
2022/01/04 10:55:36;;;;;;;30.98;17.70;;;;;;;;;;5038119;28;20196;-68
2022/01/04 10:58:03;;;;;;;34.38;19.33;;;;;;;;;;5036711;28;20197;-68
2022/01/04 11:00:29;;;;;;;31.98;17.98;;;;;;;;;;5044067;28;20193;-69
2022/01/04 11:02:57;;;;;;;30.23;17.70;;;;;;;;;;5039076;28;20190;-68
2022/01/04 11:05:23;;;;;;;28.30;17.00;;;;;;;;;;5043100;28;20398;-68
2022/01/04 11:08:04;;;;;;;31.13;17.85;;;;;;;;;;5041867;28;20250;-68
2022/01/04 11:10:32;;;;;;;27.35;17.02;;;;;;;;;;5043864;28;20190;-68
2022/01/04 11:12:58;;;;;;;31.17;17.17;;;;;;;;;;5042795;28;20217;-69
2022/01/04 11:15:25;;;;;;;25.95;16.67;;;;;;;;;;5043656;28;20221;-68
2022/01/04 11:17:50;;;;;;;28.88;15.73;;;;;;;;;;5044354;28;20212;-67
2022/01/04 11:20:17;;;;;;;27.70;15.48;;;;;;;;;;5047537;28;20236;-68
2022/01/04 11:22:46;;;;;;;26.00;15.63;;;;;;;;;;5046814;28;20189;-68
2022/01/04 11:25:13;;;;;;;29.17;15.95;;;;;;;;;;5045845;28;20268;-68
2022/01/04 11:27:39;;;;;;;28.05;16.30;;;;;;;;;;5048229;28;20196;-69
2022/01/04 11:30:13;;;;;;;27.02;15.13;;;;;;;;;;5043634;28;20620;-68
2022/01/04 11:32:42;;;;;;;26.53;14.47;;;;;;;;;;5045838;28;20221;-68
2022/01/04 11:35:13;;;;;;;25.83;14.98;;;;;;;;;;5045820;28;20181;-69
2022/01/04 11:37:41;;;;;;;28.75;15.23;;;;;;;;;;5047568;28;20224;-68
2022/01/04 11:40:28;;;;;;;24.98;14.98;;;;;;;;;;5046728;28;20300;-68
2022/01/04 11:42:54;;;;;;;22.95;14.30;;;;;;;;;;5044107;28;20181;-68
2022/01/04 11:45:47;;;;;;;24.60;14.27;;;;;;;;;;5044247;28;20268;-68
2022/01/04 11:48:25;;;;;;;28.25;13.77;;;;;;;;;;5040888;28;20181;-68
2022/01/04 11:50:50;;;;;;;26.15;13.75;;;;;;;;;;5049073;28;20192;-68
2022/01/04 11:53:16;;;;;;;27.02;14.00;;;;;;;;;;5042999;28;20188;-68
2022/01/04 11:55:51;;;;;;;24.83;13.45;;;;;;;;;;5048625;28;20275;-68
2022/01/04 11:58:20;;;;;;;23.87;12.60;;;;;;;;;;5042043;28;20741;-69
2022/01/04 12:01:02;;;;;;;22.47;11.70;;;;;;;;;;5044964;28;20527;-68
2022/01/04 12:03:36;;;;;;;17.47;10.63;;;;;;;;;;5044722;28;20189;-70
2022/01/04 12:06:02;;;;;;;11.80;6.03;;;;;;;;;;5043975;28;20511;-69
2022/01/04 12:08:36;;;;;;;8.00;4.97;;;;;;;;;;5039547;28;20186;-68
2022/01/04 12:11:02;;;;;;;11.03;4.53;;;;;;;;;;5044191;28;20192;-69
2022/01/04 12:14:01;;;;;;;6.93;3.43;;;;;;;;;;5044987;28;20181;-68
2022/01/04 12:16:31;;;;;;;6.97;3.23;;;;;;;;;;5035179;28;20615;-68
2022/01/04 12:18:57;;;;;;;7.00;2.77;;;;;;;;;;5042309;28;20184;-69
2022/01/04 12:21:26;;;;;;;8.17;2.90;;;;;;;;;;5042349;28;20173;-69
2022/01/04 12:23:52;;;;;;;7.50;2.90;;;;;;;;;;5044244;28;20232;-69
2022/01/04 12:26:17;;;;;;;4.67;2.30;;;;;;;;;;5042996;28;20186;-69
2022/01/04 12:28:44;;;;;;;3.33;1.80;;;;;;;;;;5044604;28;20181;-69
2022/01/04 12:31:12;;;;;;;5.00;1.70;;;;;;;;;;5043399;28;20700;-68
2022/01/04 12:33:39;;;;;;;7.07;2.00;;;;;;;;;;5043189;28;20177;-68
2022/01/04 12:36:04;;;;;;;8.80;2.43;;;;;;;;;;5046960;28;20185;-68
2022/01/04 12:38:32;;;;;;;5.93;1.87;;;;;;;;;;5045194;28;20580;-68
2022/01/04 12:40:58;;;;;;;6.47;2.20;;;;;;;;;;5045112;28;20280;-69
2022/01/04 12:43:24;;;;;;;6.13;2.07;;;;;;;;;;5042654;28;20596;-67
2022/01/04 12:46:00;;;;;;;7.93;2.60;;;;;;;;;;5043605;28;20276;-67
2022/01/04 12:48:45;;;;;;;6.00;1.70;;;;;;;;;;5036268;28;20216;-68
2022/01/04 12:51:40;;;;;;;6.07;1.40;;;;;;;;;;5044942;28;20185;-68
2022/01/04 12:54:09;;;;;;;3.53;1.03;;;;;;;;;;5044299;28;20694;-68
2022/01/04 12:56:53;;;;;;;4.03;1.40;;;;;;;;;;5046194;28;20329;-68
2022/01/04 12:59:40;;;;;;;6.83;1.10;;;;;;;;;;5044130;28;20789;-68
2022/01/04 13:02:28;;;;;;;9.00;1.17;;;;;;;;;;5039468;28;20185;-68
2022/01/04 13:04:57;;;;;;;5.17;1.33;;;;;;;;;;5044783;28;20525;-68
2022/01/04 13:07:31;;;;;;;5.83;1.53;;;;;;;;;;5046010;28;20637;-68
2022/01/04 13:10:00;;;;;;;6.67;1.20;;;;;;;;;;5041111;28;20185;-69
2022/01/04 13:12:29;;;;;;;7.13;2.10;;;;;;;;;;5041460;28;20189;-69
2022/01/04 13:14:55;;;;;;;4.50;1.70;;;;;;;;;;5042078;28;20546;-69
2022/01/04 13:17:23;;;;;;;4.10;1.67;;;;;;;;;;5045630;28;21539;-69
2022/01/04 13:19:50;;;;;;;5.80;1.50;;;;;;;;;;5043077;28;20193;-69
2022/01/04 13:22:20;;;;;;;1.70;0.90;;;;;;;;;;5046221;28;20475;-69
2022/01/04 13:24:47;;;;;;;1.43;1.00;;;;;;;;;;5041957;28;20264;-68
2022/01/04 13:27:21;;;;;;;3.40;0.80;;;;;;;;;;5046212;28;20720;-69
2022/01/04 13:29:58;;;;;;;3.07;0.53;;;;;;;;;;5044680;28;20233;-69
2022/01/04 13:32:26;;;;;;;3.50;0.60;;;;;;;;;;5043221;28;20197;-69
2022/01/04 13:34:57;;;;;;;1.90;0.80;;;;;;;;;;5044902;28;20188;-69
2022/01/04 13:37:22;;;;;;;1.43;0.60;;;;;;;;;;5045671;28;20209;-69
2022/01/04 13:39:49;;;;;;;2.10;0.50;;;;;;;;;;5044749;28;20193;-69
2022/01/04 13:42:28;;;;;;;3.47;0.80;;;;;;;;;;5045897;28;20599;-69
2022/01/04 13:44:58;;;;;;;1.13;0.60;;;;;;;;;;5045549;28;20193;-69
2022/01/04 13:47:23;;;;;;;1.00;0.60;;;;;;;;;;5043962;28;20254;-69
2022/01/04 13:49:48;;;;;;;2.73;0.57;;;;;;;;;;5047787;28;20188;-69
2022/01/04 13:52:16;;;;;;;1.40;0.70;;;;;;;;;;5042756;28;20181;-68
2022/01/04 13:54:41;;;;;;;2.80;0.80;;;;;;;;;;5044462;28;20185;-68
2022/01/04 13:57:15;;;;;;;4.23;1.00;;;;;;;;;;5042955;28;20225;-68
2022/01/04 13:59:43;;;;;;;4.33;1.00;;;;;;;;;;5045247;28;20205;-68
2022/01/04 14:02:30;;;;;;;3.03;0.77;;;;;;;;;;5041511;28;20191;-68
2022/01/04 14:05:12;;;;;;;5.97;1.83;;;;;;;;;;5041836;28;20185;-68
2022/01/04 14:07:38;;;;;;;2.07;0.60;;;;;;;;;;5046609;28;20200;-68
2022/01/04 14:10:03;;;;;;;2.87;0.70;;;;;;;;;;5043508;28;20323;-68
2022/01/04 14:12:29;;;;;;;8.97;0.60;;;;;;;;;;5044630;28;20593;-68
2022/01/04 14:14:56;;;;;;;6.90;0.57;;;;;;;;;;5043476;28;20927;-69
2022/01/04 14:17:24;;;;;;;4.43;0.67;;;;;;;;;;5044058;28;20221;-69
2022/01/04 14:20:01;;;;;;;3.37;0.60;;;;;;;;;;5040965;28;20193;-69
2022/01/04 14:22:33;;;;;;;3.00;0.47;;;;;;;;;;5044022;28;20189;-69
2022/01/04 14:25:01;;;;;;;6.47;0.63;;;;;;;;;;5043220;28;20288;-69
2022/01/04 14:27:33;;;;;;;6.20;0.50;;;;;;;;;;5044293;28;20181;-69
2022/01/04 14:30:13;;;;;;;2.87;0.70;;;;;;;;;;5038214;28;20659;-69